Time;durP1;ratioP1;P1;durP2;ratioP2;P2;SDS_P1;SDS_P2;PMS_P1;PMS_P2;Temp;Humidity;BMP_temperature;BMP_pressure;BME280_temperature;BME280_humidity;BME280_pressure;Samples;Min_cycle;Max_cycle;Signal;HPM_P1;HPM_P2
2023/04/18 00:01:37;;;;;;;6.22;1.33;;;20.90;99.90;;;;;;5046857;28;20017;-66
2023/04/18 00:04:05;;;;;;;9.18;1.40;;;21.00;99.90;;;;;;5048092;28;20085;-63
2023/04/18 00:06:34;;;;;;;10.48;1.60;;;21.10;99.90;;;;;;5046806;28;20584;-63
2023/04/18 00:09:02;;;;;;;8.65;1.27;;;21.20;99.90;;;;;;5036872;28;20033;-72
2023/04/18 00:11:30;;;;;;;9.70;2.05;;;21.30;99.90;;;;;;5037877;28;20032;-66
2023/04/18 00:13:58;;;;;;;7.78;1.35;;;21.40;99.90;;;;;;5035727;28;20041;-65
2023/04/18 00:16:27;;;;;;;6.47;2.25;;;21.40;99.90;;;;;;5045392;28;20029;-66
2023/04/18 00:18:58;;;;;;;4.88;1.20;;;21.40;99.90;;;;;;5046315;28;20060;-66
2023/04/18 00:21:25;;;;;;;4.50;0.90;;;21.50;99.90;;;;;;5045719;28;20100;-64
2023/04/18 00:23:52;;;;;;;2.20;0.93;;;21.60;99.90;;;;;;5045880;28;20025;-66
2023/04/18 00:26:20;;;;;;;9.52;1.65;;;21.80;99.90;;;;;;5047851;28;20083;-66
2023/04/18 00:28:47;;;;;;;6.68;1.27;;;22.00;99.90;;;;;;5048094;28;20028;-64
2023/04/18 00:31:15;;;;;;;4.30;0.90;;;22.10;99.90;;;;;;5049274;28;20554;-64
2023/04/18 00:33:42;;;;;;;4.25;0.80;;;22.30;99.90;;;;;;5031790;28;20029;-63
2023/04/18 00:36:09;;;;;;;3.13;0.82;;;22.40;99.90;;;;;;5048598;28;20017;-64
2023/04/18 00:38:37;;;;;;;5.55;1.00;;;22.50;99.90;;;;;;5048852;28;20033;-63
2023/04/18 00:41:04;;;;;;;4.47;1.08;;;22.70;99.90;;;;;;5049004;28;20497;-64
2023/04/18 00:43:34;;;;;;;7.10;1.20;;;22.90;99.90;;;;;;5049048;28;20398;-66
2023/04/18 00:46:01;;;;;;;5.53;1.10;;;23.10;99.90;;;;;;5049145;28;20405;-65
2023/04/18 00:48:30;;;;;;;4.45;1.20;;;23.20;99.90;;;;;;5031158;28;20416;-68
2023/04/18 00:50:59;;;;;;;7.40;1.10;;;23.20;99.90;;;;;;5048610;28;20531;-67
2023/04/18 00:53:27;;;;;;;4.20;1.20;;;23.30;99.90;;;;;;5034218;28;20021;-68
2023/04/18 00:55:55;;;;;;;6.32;2.65;;;23.60;99.90;;;;;;5048952;28;20172;-66
2023/04/18 00:58:23;;;;;;;5.70;1.42;;;23.90;99.60;;;;;;5051192;28;20029;-66
2023/04/18 01:00:51;;;;;;;2.63;1.20;;;24.00;99.60;;;;;;5052242;28;20021;-68
2023/04/18 01:03:18;;;;;;;5.90;1.23;;;24.00;98.90;;;;;;5052009;28;20040;-65
2023/04/18 01:05:46;;;;;;;9.50;1.05;;;24.10;97.80;;;;;;5031491;28;20159;-66
2023/04/18 01:08:13;;;;;;;2.97;1.15;;;24.10;97.90;;;;;;5031350;28;20044;-67
2023/04/18 01:10:41;;;;;;;3.85;1.08;;;24.00;96.40;;;;;;5044023;28;20036;-66
2023/04/18 01:13:11;;;;;;;4.93;1.33;;;23.90;95.30;;;;;;5046335;28;20041;-65
2023/04/18 01:15:41;;;;;;;9.02;1.38;;;23.90;95.90;;;;;;5047318;28;20489;-65
2023/04/18 01:18:10;;;;;;;3.58;1.15;;;23.80;95.30;;;;;;5046453;28;20059;-65
2023/04/18 01:20:46;;;;;;;3.55;0.80;;;23.80;94.30;;;;;;5045906;28;20029;-66
2023/04/18 01:23:18;;;;;;;6.88;1.30;;;23.80;95.90;;;;;;5046953;28;20020;-66
2023/04/18 01:25:49;;;;;;;4.85;1.08;;;23.80;93.30;;;;;;5031541;28;20045;-67
2023/04/18 01:28:18;;;;;;;3.30;0.73;;;23.80;91.90;;;;;;5045898;28;20041;-66
2023/04/18 01:30:45;;;;;;;6.55;0.95;;;24.00;94.30;;;;;;5045780;28;20025;-65
2023/04/18 01:33:13;;;;;;;6.63;1.23;;;24.20;93.30;;;;;;5049953;28;20025;-67
2023/04/18 01:35:40;;;;;;;5.30;1.10;;;24.30;95.10;;;;;;5051603;28;20078;-64
2023/04/18 01:38:07;;;;;;;4.35;0.75;;;24.50;92.80;;;;;;5037937;28;20094;-65
2023/04/18 01:40:35;;;;;;;5.10;1.13;;;24.70;92.50;;;;;;5032691;28;20025;-66
2023/04/18 01:43:02;;;;;;;4.22;0.85;;;24.50;90.30;;;;;;5053115;28;20033;-66
2023/04/18 01:45:30;;;;;;;7.10;1.20;;;24.40;90.50;;;;;;5034177;28;20206;-65
2023/04/18 01:47:57;;;;;;;4.75;0.90;;;24.20;90.60;;;;;;5052149;28;20500;-65
2023/04/18 01:50:25;;;;;;;3.83;1.05;;;24.20;91.50;;;;;;5042646;28;20047;-66
2023/04/18 01:52:52;;;;;;;5.90;1.27;;;24.00;90.20;;;;;;5039391;28;20037;-66
2023/04/18 01:55:20;;;;;;;5.65;1.63;;;24.00;90.60;;;;;;5045972;28;20533;-65
2023/04/18 01:57:49;;;;;;;5.13;1.30;;;23.90;90.60;;;;;;5055492;28;20036;-65
2023/04/18 02:00:17;;;;;;;5.40;1.10;;;23.90;90.30;;;;;;5054783;28;20020;-66
2023/04/18 02:02:45;;;;;;;5.28;1.13;;;23.80;90.90;;;;;;5055291;28;20064;-66
2023/04/18 02:05:12;;;;;;;4.32;1.05;;;23.90;91.40;;;;;;5035798;28;20036;-66
2023/04/18 02:07:41;;;;;;;4.00;0.90;;;23.80;90.50;;;;;;5039903;28;20036;-65
2023/04/18 02:10:11;;;;;;;3.10;1.20;;;23.90;90.70;;;;;;5034936;28;20370;-65
2023/04/18 02:12:38;;;;;;;4.50;1.65;;;24.00;90.70;;;;;;5051091;28;20032;-67
2023/04/18 02:15:06;;;;;;;7.05;2.33;;;24.00;89.40;;;;;;5049965;28;20667;-69
2023/04/18 02:17:35;;;;;;;7.13;1.60;;;24.00;90.90;;;;;;5030967;28;20029;-69
2023/04/18 02:20:08;;;;;;;7.57;1.10;;;24.10;91.10;;;;;;5032277;28;20025;-69
2023/04/18 02:22:38;;;;;;;4.57;1.08;;;24.20;89.60;;;;;;5051316;28;20455;-66
2023/04/18 02:25:05;;;;;;;4.70;0.73;;;24.20;90.20;;;;;;5028290;28;20027;-67
2023/04/18 02:27:32;;;;;;;7.25;1.67;;;24.30;90.90;;;;;;5048774;28;20035;-69
2023/04/18 02:30:00;;;;;;;2.35;0.70;;;24.50;90.40;;;;;;5049313;28;20555;-67
2023/04/18 02:32:27;;;;;;;7.22;0.93;;;24.60;90.40;;;;;;5050418;28;20072;-65
2023/04/18 02:34:54;;;;;;;6.35;1.00;;;24.70;91.30;;;;;;5051099;28;20056;-68
2023/04/18 02:37:21;;;;;;;6.25;1.42;;;25.00;90.70;;;;;;5045268;28;20025;-68
2023/04/18 02:39:48;;;;;;;7.95;1.30;;;24.90;84.60;;;;;;5033738;28;20751;-67
2023/04/18 02:42:16;;;;;;;5.65;1.52;;;24.80;88.30;;;;;;5049359;28;20064;-70
2023/04/18 02:44:43;;;;;;;8.20;1.85;;;24.60;85.30;;;;;;5033720;28;20040;-69
2023/04/18 02:47:10;;;;;;;4.85;0.90;;;24.50;89.10;;;;;;5052116;28;20028;-69
2023/04/18 02:49:37;;;;;;;4.30;1.20;;;24.50;88.90;;;;;;5051411;28;20147;-69
2023/04/18 02:52:05;;;;;;;7.63;1.50;;;24.20;90.00;;;;;;5036624;28;20031;-68
2023/04/18 02:54:32;;;;;;;4.05;0.82;;;24.20;90.10;;;;;;5036412;28;20029;-69
2023/04/18 02:57:03;;;;;;;5.78;1.67;;;24.20;90.50;;;;;;5057248;28;20447;-69
2023/04/18 02:59:30;;;;;;;5.20;1.27;;;23.90;90.80;;;;;;5055351;28;20029;-69
2023/04/18 03:01:57;;;;;;;4.57;1.30;;;23.60;90.30;;;;;;5050666;28;20130;-69
2023/04/18 03:04:26;;;;;;;7.65;1.08;;;23.40;91.30;;;;;;5033030;28;20043;-68
2023/04/18 03:06:54;;;;;;;6.65;1.25;;;23.30;91.30;;;;;;5029143;28;20029;-69
2023/04/18 03:09:22;;;;;;;4.47;1.48;;;23.20;91.30;;;;;;5047583;28;20116;-68
2023/04/18 03:11:49;;;;;;;9.05;2.35;;;23.30;90.80;;;;;;5048771;28;20036;-68
2023/04/18 03:14:16;;;;;;;4.13;1.08;;;23.20;91.50;;;;;;5013564;28;20049;-67
2023/04/18 03:16:43;;;;;;;7.40;0.98;;;23.20;90.80;;;;;;5008384;28;20026;-68
2023/04/18 03:19:11;;;;;;;4.30;0.98;;;23.20;91.50;;;;;;5010034;28;20026;-68
2023/04/18 03:21:38;;;;;;;3.15;0.80;;;23.40;92.50;;;;;;5005594;28;20017;-68
2023/04/18 03:24:06;;;;;;;6.30;0.73;;;24.00;91.40;;;;;;5006592;28;20017;-67
2023/04/18 03:26:33;;;;;;;3.60;0.88;;;24.20;90.10;;;;;;5007360;28;20098;-67
2023/04/18 03:29:01;;;;;;;5.00;1.38;;;24.50;92.70;;;;;;5008214;28;20041;-66
2023/04/18 03:31:28;;;;;;;6.32;0.90;;;24.30;90.30;;;;;;5005985;28;20116;-67
2023/04/18 03:33:56;;;;;;;7.63;1.17;;;24.20;90.10;;;;;;5008206;28;20022;-67
2023/04/18 03:36:24;;;;;;;2.60;1.02;;;23.90;90.50;;;;;;5007678;28;20164;-67
2023/04/18 03:38:51;;;;;;;4.13;1.30;;;24.00;91.20;;;;;;5008569;28;20104;-68
2023/04/18 03:41:18;;;;;;;3.03;0.85;;;24.00;92.20;;;;;;5004625;28;20033;-68
2023/04/18 03:43:46;;;;;;;5.40;1.33;;;23.90;91.50;;;;;;5009274;28;20018;-68
2023/04/18 03:46:13;;;;;;;6.05;1.02;;;23.60;92.10;;;;;;5008109;28;20111;-68
2023/04/18 03:48:40;;;;;;;7.47;1.20;;;23.30;92.60;;;;;;5004901;28;20101;-67
2023/04/18 03:51:07;;;;;;;5.32;1.20;;;23.30;93.80;;;;;;5007124;28;20025;-67
2023/04/18 03:53:35;;;;;;;3.65;0.77;;;23.20;93.60;;;;;;5007624;28;20030;-67
2023/04/18 03:56:02;;;;;;;4.50;1.33;;;23.10;93.20;;;;;;5006855;28;20494;-68
2023/04/18 03:58:29;;;;;;;8.75;1.00;;;23.10;93.20;;;;;;5005047;28;20064;-68
2023/04/18 04:00:57;;;;;;;4.80;0.90;;;23.10;94.60;;;;;;5007550;28;20010;-68
2023/04/18 04:03:26;;;;;;;7.05;1.10;;;23.30;94.40;;;;;;5008774;28;20187;-68
2023/04/18 04:05:54;;;;;;;3.25;1.02;;;23.30;94.10;;;;;;5006997;28;20049;-68
2023/04/18 04:08:22;;;;;;;7.30;1.20;;;23.40;93.20;;;;;;5005472;28;20026;-68
2023/04/18 04:10:49;;;;;;;2.38;1.00;;;23.40;93.10;;;;;;5001906;28;20057;-68
2023/04/18 04:13:16;;;;;;;5.32;1.20;;;23.40;92.90;;;;;;5018720;28;20044;-68
2023/04/18 04:15:44;;;;;;;4.18;0.80;;;23.40;93.20;;;;;;5038580;28;20029;-68
2023/04/18 04:18:11;;;;;;;6.10;1.88;;;23.40;93.10;;;;;;5058866;28;20027;-68
2023/04/18 04:20:38;;;;;;;4.72;0.90;;;23.60;93.60;;;;;;5049915;28;20682;-68
2023/04/18 04:23:06;;;;;;;9.23;0.95;;;23.90;92.20;;;;;;5045453;28;20649;-68
2023/04/18 04:25:33;;;;;;;6.97;0.90;;;24.00;92.10;;;;;;5046443;28;20041;-71
2023/04/18 04:28:01;;;;;;;6.97;1.30;;;24.00;93.00;;;;;;5029102;28;20081;-73
2023/04/18 04:30:28;;;;;;;3.13;1.02;;;24.20;92.60;;;;;;5039968;28;20069;-66
2023/04/18 04:32:55;;;;;;;8.52;1.30;;;24.50;91.90;;;;;;5027580;28;20115;-66
2023/04/18 04:35:23;;;;;;;3.22;0.75;;;24.60;90.60;;;;;;5045046;28;20021;-66
2023/04/18 04:37:50;;;;;;;6.20;1.00;;;24.70;90.50;;;;;;5046445;28;20021;-66
2023/04/18 04:40:18;;;;;;;5.10;0.88;;;24.70;90.90;;;;;;5017203;28;20035;-66
2023/04/18 04:42:47;;;;;;;5.47;1.17;;;24.70;90.40;;;;;;5051489;28;20375;-67
2023/04/18 04:45:16;;;;;;;8.38;1.40;;;24.50;90.20;;;;;;5043147;28;20093;-67
2023/04/18 04:47:43;;;;;;;5.03;0.80;;;24.00;91.60;;;;;;5051453;28;20146;-67
2023/04/18 04:50:14;;;;;;;9.07;1.55;;;23.40;93.00;;;;;;5061135;28;20047;-67
2023/04/18 04:52:42;;;;;;;8.38;1.10;;;23.30;94.40;;;;;;5049798;28;20096;-67
2023/04/18 04:55:10;;;;;;;3.03;1.40;;;23.10;94.40;;;;;;5048847;28;20481;-66
2023/04/18 04:57:39;;;;;;;7.35;1.27;;;23.00;95.60;;;;;;5047716;28;20428;-67
2023/04/18 05:00:07;;;;;;;3.40;0.80;;;23.10;96.20;;;;;;5051247;28;20028;-67
2023/04/18 05:02:34;;;;;;;4.80;1.55;;;22.90;95.40;;;;;;5051274;28;20024;-67
2023/04/18 05:05:02;;;;;;;15.70;2.92;;;22.80;96.60;;;;;;5042132;28;20072;-67
2023/04/18 05:07:31;;;;;;;7.85;1.17;;;22.80;97.00;;;;;;5044556;28;20027;-67
2023/04/18 05:09:58;;;;;;;7.20;1.13;;;22.60;97.00;;;;;;5051167;28;20017;-66
2023/04/18 05:12:27;;;;;;;6.25;1.00;;;22.40;97.60;;;;;;5056994;28;20077;-67
2023/04/18 05:14:54;;;;;;;5.20;1.00;;;22.40;97.90;;;;;;5066879;28;20119;-66
2023/04/18 05:17:21;;;;;;;17.45;4.80;;;22.30;99.00;;;;;;5047494;28;20025;-66
2023/04/18 05:19:49;;;;;;;7.78;1.85;;;22.30;99.20;;;;;;5047564;28;20057;-63
2023/04/18 05:22:16;;;;;;;12.43;3.72;;;22.30;99.70;;;;;;5069735;28;20021;-66
2023/04/18 05:24:44;;;;;;;6.43;0.90;;;22.30;99.90;;;;;;5046308;28;20561;-65
2023/04/18 05:27:11;;;;;;;7.43;1.40;;;22.30;99.90;;;;;;5050551;28;20100;-66
2023/04/18 05:29:38;;;;;;;4.10;1.00;;;22.20;99.90;;;;;;5052697;28;20486;-66
2023/04/18 05:32:05;;;;;;;6.78;1.35;;;22.20;99.90;;;;;;5057114;28;20416;-66
2023/04/18 05:34:36;;;;;;;14.88;4.85;;;22.30;99.90;;;;;;5047178;28;20039;-66
2023/04/18 05:37:03;;;;;;;4.75;1.10;;;22.40;99.90;;;;;;5040185;28;20042;-65
2023/04/18 05:39:31;;;;;;;6.50;1.25;;;22.30;99.80;;;;;;5060218;28;20029;-66
2023/04/18 05:41:59;;;;;;;7.47;0.90;;;22.30;99.90;;;;;;5043085;28;20016;-66
2023/04/18 05:44:27;;;;;;;8.52;1.38;;;22.40;99.80;;;;;;5063527;28;20025;-63
2023/04/18 05:46:54;;;;;;;8.63;1.02;;;22.40;99.90;;;;;;5048273;28;20029;-66
2023/04/18 05:49:22;;;;;;;6.80;0.90;;;22.30;99.90;;;;;;5052744;28;20162;-66
2023/04/18 05:51:51;;;;;;;4.32;0.90;;;22.30;99.90;;;;;;5035740;28;20040;-66
2023/04/18 05:54:23;;;;;;;3.63;0.80;;;22.10;99.90;;;;;;5048494;28;20032;-65
2023/04/18 05:56:51;;;;;;;3.58;0.93;;;22.10;99.90;;;;;;5050808;28;20543;-66
2023/04/18 05:59:19;;;;;;;6.60;0.90;;;22.10;99.90;;;;;;5052552;28;20033;-66
2023/04/18 06:01:48;;;;;;;2.92;0.68;;;22.00;99.90;;;;;;5062719;28;20029;-66
2023/04/18 06:04:16;;;;;;;3.35;0.80;;;22.00;99.90;;;;;;5034970;28;20025;-65
2023/04/18 06:06:43;;;;;;;4.68;0.93;;;21.90;99.90;;;;;;5051352;28;20033;-66
2023/04/18 06:09:11;;;;;;;2.50;0.70;;;21.80;99.90;;;;;;5048347;28;20055;-66
2023/04/18 06:11:38;;;;;;;6.25;1.30;;;21.80;99.90;;;;;;5038237;28;20488;-66
2023/04/18 06:14:06;;;;;;;5.05;0.65;;;21.70;99.90;;;;;;5017586;28;21176;-67
2023/04/18 06:16:36;;;;;;;4.38;0.90;;;21.70;99.90;;;;;;5026237;28;20033;-66
2023/04/18 06:19:04;;;;;;;5.97;1.00;;;21.70;99.90;;;;;;5018347;28;20052;-66
2023/04/18 06:21:31;;;;;;;7.40;2.10;;;21.60;99.90;;;;;;5040071;28;20029;-66
2023/04/18 06:24:00;;;;;;;5.35;1.20;;;21.60;99.90;;;;;;5043460;28;20107;-65
2023/04/18 06:26:29;;;;;;;6.18;1.00;;;21.60;99.90;;;;;;5031894;28;20029;-66
2023/04/18 06:28:56;;;;;;;4.65;1.38;;;21.60;99.90;;;;;;5040756;28;20097;-67
2023/04/18 06:31:23;;;;;;;7.97;1.00;;;21.60;99.90;;;;;;5019611;28;20374;-66
2023/04/18 06:33:51;;;;;;;9.43;1.58;;;21.50;99.90;;;;;;5018626;28;20033;-66
2023/04/18 06:36:19;;;;;;;5.68;0.95;;;21.50;99.90;;;;;;5023445;28;20063;-66
2023/04/18 06:38:46;;;;;;;8.85;1.05;;;21.40;99.90;;;;;;5001798;28;20104;-66
2023/04/18 06:41:14;;;;;;;4.22;0.93;;;21.30;99.90;;;;;;5028516;28;20489;-66
2023/04/18 06:43:42;;;;;;;7.97;1.77;;;21.20;99.90;;;;;;5048604;28;20071;-66
2023/04/18 06:46:09;;;;;;;9.05;1.00;;;21.10;99.90;;;;;;5035901;28;21225;-66
2023/04/18 06:48:37;;;;;;;7.68;1.30;;;21.00;99.90;;;;;;5034808;28;20646;-64
2023/04/18 06:51:04;;;;;;;3.10;0.93;;;21.00;99.90;;;;;;5045484;28;20075;-66
2023/04/18 06:53:31;;;;;;;7.20;1.67;;;20.90;99.90;;;;;;5049487;28;20056;-66
2023/04/18 06:55:59;;;;;;;3.25;1.02;;;20.90;99.90;;;;;;5051992;28;20024;-66
2023/04/18 06:58:27;;;;;;;10.50;1.27;;;20.80;99.90;;;;;;5026831;28;20016;-65
2023/04/18 07:00:54;;;;;;;6.00;1.20;;;20.80;99.90;;;;;;5046655;28;20386;-65
2023/04/18 07:03:22;;;;;;;5.63;1.42;;;20.70;99.90;;;;;;5043752;28;20071;-65
2023/04/18 07:05:49;;;;;;;3.88;1.20;;;20.70;99.90;;;;;;5045478;28;20039;-65
2023/04/18 07:08:16;;;;;;;6.05;1.25;;;20.60;99.90;;;;;;5032420;28;20061;-66
2023/04/18 07:10:44;;;;;;;8.90;1.85;;;20.50;99.90;;;;;;5045902;28;20040;-65
2023/04/18 07:13:11;;;;;;;8.48;1.20;;;20.50;99.90;;;;;;5041912;28;20091;-65
2023/04/18 07:15:39;;;;;;;5.80;1.15;;;20.40;99.90;;;;;;5045846;28;20032;-65
2023/04/18 07:18:07;;;;;;;5.07;1.35;;;20.30;99.90;;;;;;5045536;28;20029;-65
2023/04/18 07:20:34;;;;;;;18.67;2.03;;;20.20;99.90;;;;;;5044720;28;20465;-66
2023/04/18 07:23:02;;;;;;;4.28;1.20;;;20.10;99.90;;;;;;5045746;28;20075;-66
2023/04/18 07:25:29;;;;;;;6.90;1.65;;;20.00;99.90;;;;;;5045141;28;20048;-65
2023/04/18 07:27:56;;;;;;;5.50;1.60;;;20.00;99.90;;;;;;5044794;28;20036;-66
2023/04/18 07:30:25;;;;;;;5.75;1.70;;;19.80;99.90;;;;;;5045499;28;20025;-66
2023/04/18 07:32:52;;;;;;;8.20;1.20;;;19.70;99.90;;;;;;5044560;28;20397;-66
2023/04/18 07:35:20;;;;;;;7.40;1.25;;;19.60;99.90;;;;;;5031682;28;20033;-66
2023/04/18 07:37:48;;;;;;;9.27;2.30;;;19.50;99.90;;;;;;5049624;28;20024;-66
2023/04/18 07:40:16;;;;;;;5.80;1.30;;;19.40;99.90;;;;;;5055040;28;20077;-66
2023/04/18 07:42:43;;;;;;;9.65;1.63;;;19.20;99.90;;;;;;5029691;28;20359;-66
2023/04/18 07:45:11;;;;;;;6.78;1.77;;;19.10;99.90;;;;;;5030260;28;20500;-66
2023/04/18 07:47:38;;;;;;;8.57;1.40;;;19.00;99.90;;;;;;5045392;28;20496;-66
2023/04/18 07:50:07;;;;;;;6.15;1.05;;;18.90;99.90;;;;;;5045157;28;20021;-64
2023/04/18 07:52:34;;;;;;;5.63;1.17;;;18.80;99.90;;;;;;5047014;28;20028;-64
2023/04/18 07:55:02;;;;;;;3.63;1.08;;;18.60;99.90;;;;;;5043427;28;20029;-69
2023/04/18 07:57:29;;;;;;;9.48;1.52;;;18.60;99.90;;;;;;5048506;28;20099;-65
2023/04/18 07:59:57;;;;;;;12.98;1.95;;;18.50;99.90;;;;;;5046727;28;20125;-65
2023/04/18 08:02:24;;;;;;;7.78;1.15;;;18.40;99.90;;;;;;5048609;28;20032;-67
2023/04/18 08:04:52;;;;;;;3.97;1.17;;;18.30;99.90;;;;;;5042021;28;20040;-66
2023/04/18 08:07:19;;;;;;;8.20;1.20;;;18.20;99.90;;;;;;5046341;28;20025;-65
2023/04/18 08:09:47;;;;;;;5.45;1.60;;;18.10;99.90;;;;;;5046285;28;20028;-65
2023/04/18 08:12:14;;;;;;;6.50;1.60;;;18.00;99.90;;;;;;5029846;28;20397;-64
2023/04/18 08:14:42;;;;;;;7.55;1.73;;;17.80;99.90;;;;;;5046163;28;20510;-65
2023/04/18 08:17:09;;;;;;;4.35;1.42;;;17.70;99.90;;;;;;5046991;28;20438;-64
2023/04/18 08:19:36;;;;;;;6.10;1.80;;;17.60;99.90;;;;;;5027405;28;20126;-69
2023/04/18 08:22:11;;;;;;;7.97;1.90;;;17.50;99.90;;;;;;5047451;28;20048;-66
2023/04/18 08:24:39;;;;;;;9.50;3.08;;;17.40;99.90;;;;;;5045554;28;20039;-64
2023/04/18 08:27:06;;;;;;;10.25;2.40;;;17.30;99.90;;;;;;5038890;28;20032;-65
2023/04/18 08:29:34;;;;;;;8.75;2.05;;;17.30;99.90;;;;;;5043889;28;20159;-65
2023/04/18 08:32:01;;;;;;;6.45;1.85;;;17.20;99.90;;;;;;5044457;28;20063;-65
2023/04/18 08:34:32;;;;;;;4.90;1.65;;;17.10;99.90;;;;;;5046599;28;20592;-65
2023/04/18 08:36:59;;;;;;;8.98;2.28;;;17.10;99.90;;;;;;5044166;28;20025;-65
2023/04/18 08:39:27;;;;;;;5.53;2.03;;;17.00;99.90;;;;;;5050849;28;20029;-65
2023/04/18 08:41:58;;;;;;;12.55;2.42;;;16.90;99.90;;;;;;5054632;28;20032;-65
2023/04/18 08:44:29;;;;;;;8.15;1.83;;;16.80;99.90;;;;;;5050948;28;20108;-65
2023/04/18 08:46:58;;;;;;;7.57;2.03;;;16.70;99.90;;;;;;5044352;28;20028;-63
2023/04/18 08:49:27;;;;;;;10.68;2.72;;;16.60;99.90;;;;;;5047387;28;20028;-61
2023/04/18 08:51:56;;;;;;;9.35;1.80;;;16.60;99.90;;;;;;5044768;28;20029;-66
2023/04/18 08:54:24;;;;;;;9.57;1.55;;;16.50;99.90;;;;;;5044011;28;20017;-64
2023/04/18 08:57:17;;;;;;;8.55;1.98;;;16.50;99.90;;;;;;5044725;28;20582;-65
2023/04/18 08:59:49;;;;;;;20.98;2.35;;;16.40;99.90;;;;;;5051709;28;20389;-65
2023/04/18 09:02:18;;;;;;;6.88;1.80;;;16.30;99.90;;;;;;5052431;28;20052;-65
2023/04/18 09:04:54;;;;;;;8.48;2.05;;;16.30;99.90;;;;;;5046094;28;20543;-66
2023/04/18 09:07:28;;;;;;;5.70;1.38;;;16.20;99.90;;;;;;5033628;28;20033;-65
2023/04/18 09:09:57;;;;;;;12.43;1.80;;;16.20;99.90;;;;;;5040502;28;20021;-65
2023/04/18 09:12:27;;;;;;;6.70;1.40;;;16.20;99.90;;;;;;5040087;28;20090;-66
2023/04/18 09:15:10;;;;;;;4.38;1.50;;;16.10;99.90;;;;;;5040151;28;20041;-65
2023/04/18 09:17:49;;;;;;;6.38;1.77;;;16.10;99.90;;;;;;5037976;28;20108;-65
2023/04/18 09:20:39;;;;;;;8.38;1.80;;;16.00;99.90;;;;;;5031460;28;20111;-65
2023/04/18 09:23:09;;;;;;;5.47;1.80;;;16.00;99.90;;;;;;5031803;28;20036;-66
2023/04/18 09:25:45;;;;;;;5.75;1.65;;;15.90;99.90;;;;;;5029399;28;20041;-65
2023/04/18 09:28:32;;;;;;;5.72;1.83;;;15.90;99.90;;;;;;5041578;28;20033;-66
2023/04/18 09:31:14;;;;;;;8.18;2.08;;;15.80;99.90;;;;;;5029676;28;20438;-66
2023/04/18 09:33:55;;;;;;;6.07;1.70;;;15.70;99.90;;;;;;5047011;28;20498;-66
2023/04/18 09:36:29;;;;;;;7.82;1.42;;;15.70;99.90;;;;;;5032563;28;20090;-65
2023/04/18 09:38:57;;;;;;;8.63;1.90;;;15.60;99.90;;;;;;5043465;28;20021;-65
2023/04/18 09:41:25;;;;;;;7.32;2.47;;;15.50;99.90;;;;;;5048165;28;20029;-64
2023/04/18 09:44:10;;;;;;;6.30;1.77;;;15.50;99.90;;;;;;5049431;28;20013;-66
2023/04/18 09:46:37;;;;;;;9.18;2.25;;;15.40;99.90;;;;;;5034332;28;20111;-66
2023/04/18 09:49:05;;;;;;;7.45;2.25;;;15.20;99.90;;;;;;5044519;28;20033;-65
2023/04/18 09:51:33;;;;;;;8.68;2.58;;;15.10;99.90;;;;;;5030321;28;20028;-65
2023/04/18 09:54:03;;;;;;;16.13;3.10;;;15.00;99.90;;;;;;5030876;28;20025;-64
2023/04/18 09:56:36;;;;;;;7.20;2.72;;;14.90;99.90;;;;;;5048022;28;20155;-65
2023/04/18 09:59:09;;;;;;;9.82;2.85;;;14.70;99.90;;;;;;5048546;28;20033;-65
2023/04/18 10:01:37;;;;;;;13.70;3.03;;;14.70;99.90;;;;;;5048303;28;20111;-65
2023/04/18 10:04:06;;;;;;;9.55;2.75;;;14.50;99.90;;;;;;5038251;28;20025;-66
2023/04/18 10:06:38;;;;;;;9.73;3.30;;;14.40;99.90;;;;;;5042108;28;20029;-65
2023/04/18 10:09:07;;;;;;;7.10;2.08;;;14.30;99.90;;;;;;5044679;28;20086;-65
2023/04/18 10:11:35;;;;;;;6.70;2.28;;;14.20;99.90;;;;;;5049420;28;20056;-65
2023/04/18 10:14:07;;;;;;;13.43;2.58;;;14.20;99.90;;;;;;5040443;28;20446;-65
2023/04/18 10:16:36;;;;;;;15.45;2.83;;;14.10;99.90;;;;;;5045716;28;20040;-65
2023/04/18 10:19:23;;;;;;;16.17;3.60;;;14.10;99.90;;;;;;5045097;28;20504;-65
2023/04/18 10:21:57;;;;;;;11.07;2.08;;;14.00;99.90;;;;;;5036320;28;20080;-65
2023/04/18 10:24:47;;;;;;;12.38;2.05;;;14.00;99.90;;;;;;5038473;28;20082;-65
2023/04/18 10:27:15;;;;;;;8.80;2.00;;;13.90;99.90;;;;;;5029682;28;20044;-65
2023/04/18 10:29:51;;;;;;;8.52;1.90;;;13.90;99.90;;;;;;5045978;28;20080;-65
2023/04/18 10:32:22;;;;;;;8.32;2.28;;;13.80;99.90;;;;;;5028316;28;20044;-65
2023/04/18 10:34:55;;;;;;;8.73;2.67;;;13.80;99.90;;;;;;5042363;28;20025;-65
2023/04/18 10:37:25;;;;;;;7.97;1.83;;;13.70;99.90;;;;;;5040796;28;20120;-65
2023/04/18 10:40:05;;;;;;;14.73;3.08;;;13.60;99.90;;;;;;5049423;28;20029;-64
2023/04/18 10:42:47;;;;;;;8.15;1.92;;;13.50;99.90;;;;;;5038968;28;20520;-65
2023/04/18 10:45:18;;;;;;;9.27;2.30;;;13.50;99.90;;;;;;5040171;28;20048;-65
2023/04/18 10:47:46;;;;;;;6.20;1.83;;;13.50;99.90;;;;;;5042082;28;20059;-66
2023/04/18 10:50:14;;;;;;;7.57;2.22;;;13.40;99.90;;;;;;5035686;28;20033;-66
2023/04/18 10:52:42;;;;;;;12.98;2.15;;;13.30;99.90;;;;;;5038732;28;20028;-65
2023/04/18 10:55:28;;;;;;;9.77;1.90;;;13.30;99.90;;;;;;5039606;28;20028;-65
2023/04/18 10:57:57;;;;;;;9.35;3.05;;;13.30;99.90;;;;;;5039860;28;20021;-66
2023/04/18 11:00:25;;;;;;;7.47;2.45;;;13.30;99.90;;;;;;5018800;28;20815;-66
2023/04/18 11:02:56;;;;;;;9.38;1.98;;;13.30;99.90;;;;;;5037542;28;20120;-65
2023/04/18 11:05:28;;;;;;;11.93;2.58;;;13.30;99.90;;;;;;5040569;28;20561;-65
2023/04/18 11:07:56;;;;;;;10.10;3.05;;;13.30;99.90;;;;;;5043629;28;20025;-65
2023/04/18 11:10:25;;;;;;;7.30;2.28;;;13.20;99.90;;;;;;5024773;28;20032;-66
2023/04/18 11:12:54;;;;;;;5.72;1.90;;;13.20;99.90;;;;;;5043520;28;20402;-66
2023/04/18 11:15:25;;;;;;;9.18;2.67;;;13.20;99.90;;;;;;5041560;28;20079;-65
2023/04/18 11:18:01;;;;;;;9.40;2.60;;;13.20;99.90;;;;;;5047617;28;20039;-66
2023/04/18 11:20:37;;;;;;;11.40;2.80;;;13.20;99.90;;;;;;5030105;28;20427;-65
2023/04/18 11:23:14;;;;;;;7.28;2.72;;;13.20;99.90;;;;;;5038523;28;20035;-65
2023/04/18 11:25:43;;;;;;;10.90;2.70;;;13.20;99.90;;;;;;5034355;28;20040;-65
2023/04/18 11:28:15;;;;;;;8.05;2.55;;;13.10;99.90;;;;;;5021307;28;20120;-66
2023/04/18 11:30:43;;;;;;;21.75;3.40;;;13.20;99.90;;;;;;5036958;28;20036;-65
2023/04/18 11:33:11;;;;;;;10.45;3.45;;;13.20;99.90;;;;;;5046660;28;20032;-65
2023/04/18 11:35:41;;;;;;;11.82;3.30;;;13.20;99.90;;;;;;5030262;28;20021;-66
2023/04/18 11:38:10;;;;;;;8.63;3.00;;;13.10;99.90;;;;;;5044516;28;20104;-65
2023/04/18 11:40:38;;;;;;;10.50;3.30;;;13.10;99.90;;;;;;5023567;28;20040;-65
2023/04/18 11:43:06;;;;;;;12.75;2.50;;;13.10;99.90;;;;;;5045877;28;20777;-65
2023/04/18 11:45:34;;;;;;;10.07;3.05;;;13.10;99.90;;;;;;5041889;28;20474;-65
2023/04/18 11:48:02;;;;;;;15.13;2.55;;;13.10;99.90;;;;;;5035366;28;20024;-65
2023/04/18 11:50:35;;;;;;;10.52;2.78;;;13.10;99.90;;;;;;5040520;28;20057;-65
2023/04/18 11:53:02;;;;;;;11.60;2.35;;;13.10;99.90;;;;;;5032675;28;20112;-64
2023/04/18 11:55:29;;;;;;;13.30;2.63;;;13.10;99.90;;;;;;5038895;28;20029;-66
2023/04/18 11:58:02;;;;;;;12.93;2.88;;;13.10;99.90;;;;;;5036710;28;20082;-65
2023/04/18 12:00:34;;;;;;;11.00;2.78;;;13.10;99.90;;;;;;5044016;28;20033;-66
2023/04/18 12:03:03;;;;;;;8.18;2.47;;;13.10;99.90;;;;;;5036330;28;20021;-65
2023/04/18 12:05:37;;;;;;;18.60;3.70;;;13.10;99.90;;;;;;5038769;28;20040;-65
2023/04/18 12:08:13;;;;;;;13.48;3.50;;;13.10;99.90;;;;;;5040050;28;20099;-66
2023/04/18 12:10:51;;;;;;;9.27;3.25;;;13.00;99.90;;;;;;5043233;28;20607;-65
2023/04/18 12:13:26;;;;;;;9.70;3.50;;;13.00;99.90;;;;;;5049834;28;20077;-65
2023/04/18 12:15:54;;;;;;;14.10;3.35;;;13.00;99.90;;;;;;5047479;28;20033;-65
2023/04/18 12:18:23;;;;;;;9.20;2.92;;;13.00;99.90;;;;;;5039135;28;20021;-66
2023/04/18 12:20:54;;;;;;;11.68;3.05;;;13.00;99.90;;;;;;5038448;28;20501;-66
2023/04/18 12:23:35;;;;;;;9.25;2.95;;;12.90;99.90;;;;;;5037029;28;20049;-66
2023/04/18 12:26:07;;;;;;;9.98;2.88;;;12.90;99.90;;;;;;5037847;28;20472;-66
2023/04/18 12:28:36;;;;;;;13.30;2.80;;;12.80;99.90;;;;;;5040698;28;20112;-66
2023/04/18 12:31:06;;;;;;;13.15;3.63;;;12.90;99.90;;;;;;5043472;28;20029;-66
2023/04/18 12:33:37;;;;;;;11.38;3.58;;;12.80;99.90;;;;;;5047472;28;20025;-66
2023/04/18 12:36:07;;;;;;;15.18;2.92;;;12.90;99.90;;;;;;5026476;28;20079;-66
2023/04/18 12:38:34;;;;;;;11.02;3.30;;;12.90;99.90;;;;;;5052457;28;20033;-66
2023/04/18 12:41:02;;;;;;;17.42;3.63;;;12.90;99.90;;;;;;5042147;28;20033;-66
2023/04/18 12:43:29;;;;;;;14.63;3.13;;;12.90;99.90;;;;;;5044987;28;20029;-66
2023/04/18 12:45:58;;;;;;;23.10;4.68;;;12.90;99.90;;;;;;5036359;28;20436;-66
2023/04/18 12:48:25;;;;;;;16.35;3.10;;;12.90;99.90;;;;;;5042634;28;20025;-66
2023/04/18 12:50:52;;;;;;;17.42;3.38;;;12.90;99.90;;;;;;5041974;28;20032;-65
2023/04/18 12:53:20;;;;;;;19.17;3.60;;;12.80;99.90;;;;;;5029848;28;20025;-66
2023/04/18 12:55:47;;;;;;;11.43;3.15;;;12.80;99.90;;;;;;5049608;28;20119;-66